createdAt,value
2019-02-02T00:02:27.604Z,18.60
2019-02-02T00:04:57.580Z,18.40
2019-02-02T00:07:27.616Z,18.55
2019-02-02T00:09:57.719Z,17.20
2019-02-02T00:12:27.599Z,19.55
2019-02-02T00:14:57.656Z,19.12
2019-02-02T00:17:27.825Z,19.05
2019-02-02T00:19:57.747Z,17.53
2019-02-02T00:22:27.935Z,17.95
2019-02-02T00:24:57.781Z,20.00
2019-02-02T00:27:27.904Z,18.02
2019-02-02T00:29:57.894Z,18.70
2019-02-02T00:32:28.193Z,19.20
2019-02-02T00:34:58.189Z,18.37
2019-02-02T00:37:28.157Z,16.73
2019-02-02T00:39:58.127Z,18.80
2019-02-02T00:42:28.029Z,19.77
2019-02-02T00:44:57.944Z,18.33
2019-02-02T00:47:27.964Z,19.15
2019-02-02T00:49:57.886Z,18.87
2019-02-02T00:52:27.959Z,18.85
2019-02-02T00:54:57.875Z,19.83
2019-02-02T00:57:27.868Z,18.60
2019-02-02T00:59:57.838Z,17.60
2019-02-02T01:02:27.848Z,19.37
2019-02-02T01:04:57.883Z,18.63
2019-02-02T01:07:28.102Z,18.67
2019-02-02T01:09:58.305Z,18.20
2019-02-02T01:12:28.341Z,19.47
2019-02-02T01:14:58.390Z,17.50
2019-02-02T01:17:28.421Z,17.60
2019-02-02T01:19:58.363Z,19.02
2019-02-02T01:22:28.268Z,18.70
2019-02-02T01:24:58.336Z,17.32
2019-02-02T01:27:28.359Z,17.00
2019-02-02T01:29:58.376Z,20.15
2019-02-02T01:32:28.441Z,17.83
2019-02-02T01:34:58.470Z,15.45
2019-02-02T01:37:28.443Z,18.20
2019-02-02T01:39:58.475Z,17.95
2019-02-02T01:42:28.611Z,16.53
2019-02-02T01:44:58.620Z,17.70
2019-02-02T01:47:28.705Z,17.20
2019-02-02T01:49:58.712Z,17.90
2019-02-02T01:52:28.870Z,17.63
2019-02-02T01:54:58.926Z,16.20
2019-02-02T01:57:28.866Z,16.50
2019-02-02T01:59:58.856Z,16.75
2019-02-02T02:02:28.998Z,17.40
2019-02-02T02:04:59.000Z,18.10
2019-02-02T02:07:29.106Z,17.73
2019-02-02T02:09:59.205Z,18.37
2019-02-02T02:12:29.240Z,17.35
2019-02-02T02:14:59.326Z,17.00
2019-02-02T02:17:29.230Z,15.83
2019-02-02T02:19:59.220Z,16.82
2019-02-02T02:22:40.628Z,17.10
2019-02-02T02:25:00.906Z,17.67
2019-02-02T02:27:31.030Z,16.37
2019-02-02T02:30:01.040Z,17.57
2019-02-02T02:32:31.013Z,16.55
2019-02-02T02:35:00.861Z,16.53
2019-02-02T02:37:30.944Z,16.50
2019-02-02T02:40:01.054Z,17.37
2019-02-02T02:42:31.096Z,17.93
2019-02-02T02:45:01.026Z,15.70
2019-02-02T02:47:31.253Z,16.95
2019-02-02T02:50:01.122Z,16.73
2019-02-02T02:52:31.152Z,16.30
2019-02-02T02:55:01.123Z,16.45
2019-02-02T02:57:31.218Z,17.80
2019-02-02T03:00:01.275Z,17.27
2019-02-02T03:02:31.251Z,17.47
2019-02-02T03:05:01.160Z,16.52
2019-02-02T03:07:31.149Z,16.82
2019-02-02T03:10:01.097Z,16.90
2019-02-02T03:12:31.076Z,17.50
2019-02-02T03:15:01.045Z,15.97
2019-02-02T03:17:31.007Z,15.95
2019-02-02T03:20:01.091Z,15.30
2019-02-02T03:22:31.158Z,16.90
2019-02-02T03:25:01.173Z,15.50
2019-02-02T03:27:31.184Z,16.10
2019-02-02T03:30:01.221Z,15.77
2019-02-02T03:32:31.347Z,14.75
2019-02-02T03:35:01.261Z,16.37
2019-02-02T03:37:31.242Z,17.45
2019-02-02T03:40:01.172Z,15.97
2019-02-02T03:42:31.187Z,15.63
2019-02-02T03:45:01.097Z,18.15
2019-02-02T03:47:31.092Z,17.20
2019-02-02T03:50:01.133Z,15.75
2019-02-02T03:52:31.485Z,15.30
2019-02-02T03:55:01.605Z,16.40
2019-02-02T03:57:31.640Z,16.60
2019-02-02T04:00:01.653Z,15.50
2019-02-02T04:02:31.759Z,15.18
2019-02-02T04:05:01.771Z,16.20
2019-02-02T04:07:31.767Z,17.10
2019-02-02T04:10:01.771Z,17.80
2019-02-02T04:12:31.711Z,17.45
2019-02-02T04:15:01.798Z,17.70
2019-02-02T04:17:31.805Z,16.90
2019-02-02T04:20:01.735Z,16.13
2019-02-02T04:22:31.874Z,17.17
2019-02-02T04:25:01.971Z,15.93
2019-02-02T04:27:31.841Z,16.90
2019-02-02T04:30:01.846Z,18.27
2019-02-02T04:32:31.911Z,14.60
2019-02-02T04:35:01.945Z,17.32
2019-02-02T04:37:31.904Z,16.05
2019-02-02T04:40:02.021Z,16.47
2019-02-02T04:42:31.953Z,17.12
2019-02-02T04:45:01.892Z,17.05
2019-02-02T04:47:31.944Z,16.30
2019-02-02T04:50:02.120Z,15.98
2019-02-02T04:52:32.270Z,15.87
2019-02-02T04:55:02.184Z,14.57
2019-02-02T04:57:32.111Z,16.57
2019-02-02T05:00:02.161Z,17.10
2019-02-02T05:02:32.090Z,16.63
2019-02-02T05:05:02.105Z,17.27
2019-02-02T05:07:32.082Z,18.10
2019-02-02T05:10:02.207Z,17.70
2019-02-02T05:12:32.104Z,15.55
2019-02-02T05:15:02.050Z,16.17
2019-02-02T05:17:32.069Z,15.07
2019-02-02T05:20:02.035Z,17.50
2019-02-02T05:22:32.051Z,16.48
2019-02-02T05:25:01.965Z,17.32
2019-02-02T05:27:31.988Z,16.62
2019-02-02T05:30:01.890Z,16.32
2019-02-02T05:32:31.838Z,14.55
2019-02-02T05:35:01.861Z,16.50
2019-02-02T05:37:32.016Z,17.00
2019-02-02T05:40:02.077Z,15.20
2019-02-02T05:42:32.113Z,15.50
2019-02-02T05:45:02.149Z,16.55
2019-02-02T05:47:32.051Z,15.57
2019-02-02T05:50:02.024Z,16.87
2019-02-02T05:52:32.069Z,17.37
2019-02-02T05:55:02.102Z,14.98
2019-02-02T05:57:32.009Z,15.08
2019-02-02T06:00:02.064Z,16.07
2019-02-02T06:02:32.038Z,15.07
2019-02-02T06:05:02.012Z,17.00
2019-02-02T06:07:32.071Z,16.32
2019-02-02T06:10:02.012Z,16.03
2019-02-02T06:12:32.031Z,17.65
2019-02-02T06:15:02.044Z,16.25
2019-02-02T06:17:32.052Z,17.00
2019-02-02T06:20:01.957Z,18.37
2019-02-02T06:22:33.237Z,17.40
2019-02-02T06:25:03.269Z,18.30
2019-02-02T06:27:33.179Z,17.20
2019-02-02T06:30:04.750Z,16.30
2019-02-02T06:32:34.987Z,20.08
2019-02-02T06:35:05.959Z,17.25
2019-02-02T06:37:35.897Z,20.53
2019-02-02T06:40:07.243Z,19.07
2019-02-02T06:42:37.131Z,18.30
2019-02-02T06:45:10.564Z,18.75
2019-02-02T06:47:40.541Z,19.27
2019-02-02T06:50:14.117Z,20.20
2019-02-02T06:52:44.304Z,20.80
2019-02-02T06:55:15.587Z,19.60
2019-02-02T06:57:45.692Z,20.03
2019-02-02T07:00:19.528Z,20.50
2019-02-02T07:02:51.201Z,17.80
2019-02-02T07:05:21.549Z,21.83
2019-02-02T07:07:51.742Z,18.30
2019-02-02T07:10:24.556Z,19.00
2019-02-02T07:12:54.694Z,19.13
2019-02-02T07:15:27.611Z,19.00
2019-02-02T07:17:57.731Z,16.77
2019-02-02T07:20:27.969Z,19.57
2019-02-02T07:22:57.970Z,17.45
2019-02-02T07:25:28.040Z,18.13
2019-02-02T07:27:58.107Z,15.60
2019-02-02T07:30:29.627Z,16.40
2019-02-02T07:32:59.964Z,18.93
2019-02-02T07:35:30.088Z,16.33
2019-02-02T07:38:00.054Z,17.70
2019-02-02T07:40:29.942Z,18.73
2019-02-02T07:43:00.188Z,20.00
2019-02-02T07:45:31.731Z,19.80
2019-02-02T07:48:01.871Z,18.30
2019-02-02T07:50:31.810Z,17.55
2019-02-02T07:53:01.873Z,23.77
2019-02-02T07:55:31.940Z,22.93
2019-02-02T07:58:01.906Z,17.20
2019-02-02T08:00:41.389Z,16.50
2019-02-02T08:03:11.480Z,17.07
2019-02-02T08:05:41.435Z,15.03
2019-02-02T08:08:11.623Z,16.50
2019-02-02T08:10:41.741Z,16.00
2019-02-02T08:13:11.837Z,15.10
2019-02-02T08:15:41.973Z,16.63
2019-02-02T08:18:11.983Z,15.23
2019-02-02T08:20:42.080Z,19.07
2019-02-02T08:23:12.152Z,17.33
2019-02-02T08:25:42.278Z,18.80
2019-02-02T08:28:12.333Z,15.50
2019-02-02T08:30:51.964Z,15.00
2019-02-02T08:33:14.092Z,13.87
2019-02-02T08:35:44.111Z,12.33
2019-02-02T08:38:14.211Z,11.80
2019-02-02T08:40:44.228Z,13.47
2019-02-02T08:43:14.229Z,15.67
2019-02-02T08:45:44.260Z,14.10
2019-02-02T08:48:14.253Z,14.37
2019-02-02T08:50:44.170Z,14.00
2019-02-02T08:53:14.052Z,13.67
2019-02-02T08:55:44.007Z,13.05
2019-02-02T08:58:14.272Z,13.83
2019-02-02T09:00:44.360Z,13.67
2019-02-02T09:03:14.333Z,13.83
2019-02-02T09:05:44.497Z,13.07
2019-02-02T09:08:14.602Z,11.83
2019-02-02T09:10:44.560Z,11.87
2019-02-02T09:13:14.447Z,12.17
2019-02-02T09:15:44.471Z,11.77
2019-02-02T09:18:14.622Z,10.30
2019-02-02T09:20:44.706Z,11.23
2019-02-02T09:23:14.661Z,10.57
2019-02-02T09:25:44.656Z,10.30
2019-02-02T09:28:14.526Z,8.00
2019-02-02T09:30:44.553Z,10.40
2019-02-02T09:33:14.488Z,8.08
2019-02-02T09:35:44.637Z,7.90
2019-02-02T09:38:14.622Z,7.67
2019-02-02T09:40:44.675Z,7.00
2019-02-02T09:43:14.655Z,6.50
2019-02-02T09:45:44.768Z,6.43
2019-02-02T09:48:14.745Z,5.50
2019-02-02T09:50:44.647Z,6.70
2019-02-02T09:53:14.751Z,6.17
2019-02-02T09:55:44.695Z,5.73
2019-02-02T09:58:14.606Z,7.20
2019-02-02T10:00:44.811Z,9.33
2019-02-02T10:03:14.890Z,8.80
2019-02-02T10:05:44.852Z,8.50
2019-02-02T10:08:14.826Z,7.83
2019-02-02T10:10:44.755Z,8.27
2019-02-02T10:13:14.700Z,7.77
2019-02-02T10:15:44.590Z,6.63
2019-02-02T10:18:14.539Z,7.70
2019-02-02T10:20:44.545Z,8.30
2019-02-02T10:23:14.594Z,7.63
2019-02-02T10:25:44.554Z,5.97
2019-02-02T10:28:14.528Z,8.60
2019-02-02T10:30:45.664Z,9.77
2019-02-02T10:33:17.094Z,8.50
2019-02-02T10:35:47.271Z,9.57
2019-02-02T10:38:17.223Z,7.47
2019-02-02T10:40:47.303Z,7.28
2019-02-02T10:43:17.469Z,6.30
2019-02-02T10:45:47.766Z,6.90
2019-02-02T10:48:17.708Z,7.37
2019-02-02T10:50:47.732Z,5.77
2019-02-02T10:53:17.624Z,6.00
2019-02-02T10:55:47.594Z,6.63
2019-02-02T10:58:17.554Z,5.53
2019-02-02T11:00:47.436Z,6.53
2019-02-02T11:03:17.327Z,6.35
2019-02-02T11:05:47.246Z,6.22
2019-02-02T11:08:17.336Z,7.10
2019-02-02T11:10:47.665Z,6.75
2019-02-02T11:13:17.707Z,6.77
2019-02-02T11:15:47.876Z,6.90
2019-02-02T11:18:18.259Z,5.47
2019-02-02T11:20:48.323Z,5.42
2019-02-02T11:23:18.253Z,6.07
2019-02-02T11:25:48.226Z,6.15
2019-02-02T11:28:18.440Z,5.73
2019-02-02T11:30:48.707Z,5.50
2019-02-02T11:33:19.164Z,5.30
2019-02-02T11:35:49.349Z,6.22
2019-02-02T11:38:19.302Z,5.50
2019-02-02T11:40:49.381Z,5.87
2019-02-02T11:43:19.289Z,5.03
2019-02-02T11:45:49.239Z,5.45
2019-02-02T11:48:19.223Z,5.13
2019-02-02T11:50:49.210Z,3.80
2019-02-02T11:53:19.210Z,4.40
2019-02-02T11:55:49.235Z,4.72
2019-02-02T11:58:19.241Z,5.53
2019-02-02T12:00:49.384Z,4.08
2019-02-02T12:03:19.449Z,4.90
2019-02-02T12:05:49.476Z,4.63
2019-02-02T12:08:19.343Z,3.70
2019-02-02T12:10:49.389Z,3.95
2019-02-02T12:13:19.392Z,4.70
2019-02-02T12:15:49.384Z,4.93
2019-02-02T12:18:19.285Z,4.20
2019-02-02T12:20:49.395Z,5.43
2019-02-02T12:23:19.277Z,4.23
2019-02-02T12:25:49.359Z,4.63
2019-02-02T12:28:19.415Z,4.67
2019-02-02T12:30:49.386Z,4.33
2019-02-02T12:33:19.401Z,4.20
2019-02-02T12:35:49.390Z,5.53
2019-02-02T12:38:19.447Z,5.30
2019-02-02T12:40:49.527Z,4.37
2019-02-02T12:43:19.594Z,4.70
2019-02-02T12:45:54.483Z,4.33
2019-02-02T12:48:24.720Z,5.10
2019-02-02T12:50:54.792Z,5.00
2019-02-02T12:53:24.812Z,4.20
2019-02-02T12:55:54.942Z,4.33
2019-02-02T12:58:24.943Z,6.10
2019-02-02T13:00:54.888Z,4.70
2019-02-02T13:03:24.988Z,4.47
2019-02-02T13:05:55.045Z,5.33
2019-02-02T13:08:25.122Z,4.30
2019-02-02T13:10:55.195Z,4.90
2019-02-02T13:13:25.089Z,3.50
2019-02-02T13:15:54.978Z,4.50
2019-02-02T13:18:24.940Z,4.70
2019-02-02T13:20:55.003Z,4.75
2019-02-02T13:23:25.100Z,4.47
2019-02-02T13:26:05.017Z,5.35
2019-02-02T13:28:26.720Z,4.60
2019-02-02T13:30:56.695Z,5.03
2019-02-02T13:33:28.899Z,5.20
2019-02-02T13:35:58.955Z,6.07
2019-02-02T13:38:29.909Z,6.20
2019-02-02T13:41:00.647Z,5.57
2019-02-02T13:43:31.314Z,4.92
2019-02-02T13:46:02.614Z,4.37
2019-02-02T13:48:33.672Z,5.40
2019-02-02T13:51:05.965Z,5.10
2019-02-02T13:53:35.921Z,4.97
2019-02-02T13:56:06.352Z,5.10
2019-02-02T13:58:36.301Z,5.80
2019-02-02T14:01:06.400Z,5.17
2019-02-02T14:03:36.265Z,4.53
2019-02-02T14:06:06.383Z,5.10
2019-02-02T14:08:36.260Z,4.77
2019-02-02T14:11:06.383Z,4.90
2019-02-02T14:13:36.252Z,5.37
2019-02-02T14:16:06.273Z,4.67
2019-02-02T14:18:36.248Z,5.03
2019-02-02T14:21:06.265Z,5.03
2019-02-02T14:23:36.195Z,5.28
2019-02-02T14:26:06.639Z,5.00
2019-02-02T14:28:36.497Z,5.80
2019-02-02T14:31:06.471Z,5.63
2019-02-02T14:33:36.360Z,4.30
2019-02-02T14:36:06.392Z,4.87
2019-02-02T14:38:36.347Z,5.25
2019-02-02T14:41:06.390Z,4.97
2019-02-02T14:43:36.247Z,4.87
2019-02-02T14:46:06.216Z,5.43
2019-02-02T14:48:36.168Z,5.33
2019-02-02T14:51:06.374Z,5.60
2019-02-02T14:53:36.258Z,4.47
2019-02-02T14:56:06.479Z,5.27
2019-02-02T14:58:36.505Z,5.08
2019-02-02T15:01:06.570Z,5.00
2019-02-02T15:03:36.672Z,6.37
2019-02-02T15:06:09.564Z,5.10
2019-02-02T15:08:38.319Z,6.40
2019-02-02T15:11:08.207Z,5.90
2019-02-02T15:13:38.067Z,5.60
2019-02-02T15:16:08.128Z,5.87
2019-02-02T15:18:38.020Z,8.97
2019-02-02T15:21:08.095Z,5.63
2019-02-02T15:23:37.985Z,6.80
2019-02-02T15:26:08.037Z,7.45
2019-02-02T15:28:38.046Z,6.30
2019-02-02T15:31:08.095Z,6.08
2019-02-02T15:33:38.258Z,5.80
2019-02-02T15:36:08.314Z,5.87
2019-02-02T15:38:38.188Z,6.55
2019-02-02T15:41:08.171Z,6.03
2019-02-02T15:43:38.166Z,6.00
2019-02-02T15:46:08.178Z,7.03
2019-02-02T15:48:38.148Z,7.30
2019-02-02T15:51:08.042Z,6.67
2019-02-02T15:53:37.992Z,7.12
2019-02-02T15:56:07.975Z,6.80
2019-02-02T15:58:37.841Z,6.20
2019-02-02T16:01:07.822Z,6.30
2019-02-02T16:03:49.179Z,6.87
2019-02-02T16:06:09.512Z,6.70
2019-02-02T16:08:39.508Z,7.63
2019-02-02T16:11:09.552Z,6.77
2019-02-02T16:13:39.500Z,8.30
2019-02-02T16:16:09.546Z,7.23
2019-02-02T16:18:39.439Z,7.67
2019-02-02T16:21:09.411Z,7.60
2019-02-02T16:23:39.356Z,7.50
2019-02-02T16:26:09.338Z,9.37
2019-02-02T16:28:39.262Z,8.87
2019-02-02T16:31:09.283Z,8.00
2019-02-02T16:33:39.231Z,7.80
2019-02-02T16:36:09.266Z,7.83
2019-02-02T16:38:39.163Z,6.97
2019-02-02T16:41:09.206Z,8.75
2019-02-02T16:43:39.068Z,8.37
2019-02-02T16:46:09.228Z,8.00
2019-02-02T16:48:39.138Z,8.47
2019-02-02T16:51:09.020Z,8.80
2019-02-02T16:53:38.938Z,8.85
2019-02-02T16:56:08.885Z,8.60
2019-02-02T16:58:38.792Z,8.43
2019-02-02T17:01:08.898Z,9.17
2019-02-02T17:03:38.793Z,9.65
2019-02-02T17:06:08.688Z,11.00
2019-02-02T17:08:38.654Z,10.40
2019-02-02T17:11:08.634Z,11.90
2019-02-02T17:13:38.636Z,11.97
2019-02-02T17:16:08.664Z,13.53
2019-02-02T17:18:38.646Z,12.60
2019-02-02T17:21:08.686Z,14.73
2019-02-02T17:23:38.662Z,17.40
2019-02-02T17:26:08.795Z,14.13
2019-02-02T17:28:39.833Z,15.87
2019-02-02T17:31:11.486Z,15.70
2019-02-02T17:33:41.788Z,15.00
2019-02-02T17:36:11.738Z,15.90
2019-02-02T17:38:41.726Z,16.60
2019-02-02T17:41:11.657Z,16.80
2019-02-02T17:43:41.728Z,18.27
2019-02-02T17:46:11.629Z,17.83
2019-02-02T17:48:41.540Z,16.67
2019-02-02T17:51:11.626Z,16.03
2019-02-02T17:53:41.643Z,16.97
2019-02-02T17:56:11.656Z,16.23
2019-02-02T17:58:41.712Z,15.83
2019-02-02T18:01:11.681Z,18.30
2019-02-02T18:03:41.651Z,16.20
2019-02-02T18:06:11.558Z,17.47
2019-02-02T18:08:41.514Z,17.23
2019-02-02T18:11:11.535Z,18.07
2019-02-02T18:13:41.522Z,17.60
2019-02-02T18:16:11.442Z,17.60
2019-02-02T18:18:41.428Z,17.93
2019-02-02T18:21:11.542Z,19.10
2019-02-02T18:23:41.452Z,19.47
2019-02-02T18:26:11.416Z,19.60
2019-02-02T18:28:41.449Z,18.90
2019-02-02T18:31:11.421Z,18.80
2019-02-02T18:33:41.375Z,17.50
2019-02-02T18:36:11.286Z,17.23
2019-02-02T18:38:41.312Z,17.50
2019-02-02T18:41:11.315Z,19.20
2019-02-02T18:43:41.351Z,19.70
2019-02-02T18:46:11.362Z,19.37
2019-02-02T18:48:41.387Z,20.20
2019-02-02T18:51:11.275Z,20.47
2019-02-02T18:53:41.320Z,20.90
2019-02-02T18:56:14.488Z,20.30
2019-02-02T18:58:44.858Z,22.13
2019-02-02T19:01:15.100Z,23.07
2019-02-02T19:03:45.185Z,22.98
2019-02-02T19:06:15.088Z,21.10
2019-02-02T19:08:44.990Z,21.20
2019-02-02T19:11:15.026Z,21.05
2019-02-02T19:13:45.079Z,22.90
2019-02-02T19:16:15.118Z,22.50
2019-02-02T19:18:45.023Z,25.00
2019-02-02T19:21:15.012Z,22.02
2019-02-02T19:23:44.928Z,24.55
2019-02-02T19:26:14.991Z,24.83
2019-02-02T19:28:44.928Z,26.77
2019-02-02T19:31:14.832Z,21.23
2019-02-02T19:33:44.952Z,23.95
2019-02-02T19:36:14.875Z,23.37
2019-02-02T19:38:45.023Z,21.37
2019-02-02T19:41:14.952Z,22.30
2019-02-02T19:43:44.900Z,21.85
2019-02-02T19:46:14.970Z,22.43
2019-02-02T19:48:44.949Z,23.60
2019-02-02T19:51:15.059Z,23.47
2019-02-02T19:53:45.019Z,24.27
2019-02-02T19:56:14.960Z,23.40
2019-02-02T19:58:45.116Z,25.30
2019-02-02T20:01:15.040Z,25.57
2019-02-02T20:03:45.033Z,25.55
2019-02-02T20:06:15.239Z,27.00
2019-02-02T20:08:45.116Z,54.88
2019-02-02T20:11:15.288Z,27.97
2019-02-02T20:13:45.197Z,24.07
2019-02-02T20:16:15.125Z,27.20
2019-02-02T20:18:45.251Z,25.20
2019-02-02T20:21:15.193Z,25.92
2019-02-02T20:23:45.149Z,25.60
2019-02-02T20:26:15.249Z,26.20
2019-02-02T20:28:46.773Z,24.72
2019-02-02T20:31:16.767Z,27.40
2019-02-02T20:33:46.696Z,23.63
2019-02-02T20:36:16.775Z,27.07
2019-02-02T20:38:46.822Z,28.27
2019-02-02T20:41:16.874Z,27.80
2019-02-02T20:43:46.813Z,28.17
2019-02-02T20:46:16.828Z,27.73
2019-02-02T20:48:46.918Z,25.90
2019-02-02T20:51:16.934Z,24.47
2019-02-02T20:53:46.845Z,24.83
2019-02-02T20:56:16.880Z,24.83
2019-02-02T20:58:46.933Z,24.82
2019-02-02T21:01:17.324Z,25.30
2019-02-02T21:03:47.510Z,26.20
2019-02-02T21:06:17.453Z,26.17
2019-02-02T21:08:47.346Z,25.25
2019-02-02T21:11:17.263Z,26.87
2019-02-02T21:13:47.497Z,26.68
2019-02-02T21:16:17.675Z,27.40
2019-02-02T21:18:47.779Z,27.40
2019-02-02T21:21:17.754Z,29.20
2019-02-02T21:23:47.701Z,29.87
2019-02-02T21:26:17.888Z,34.50
2019-02-02T21:28:50.630Z,35.27
2019-02-02T21:31:20.273Z,28.87
2019-02-02T21:33:50.299Z,26.93
2019-02-02T21:36:20.335Z,27.70
2019-02-02T21:38:50.630Z,30.68
2019-02-02T21:41:20.764Z,26.33
2019-02-02T21:43:50.611Z,25.80
2019-02-02T21:46:20.876Z,27.27
2019-02-02T21:48:50.879Z,25.43
2019-02-02T21:51:21.156Z,27.93
2019-02-02T21:53:51.187Z,26.07
2019-02-02T21:56:21.300Z,28.30
2019-02-02T21:58:51.295Z,26.67
2019-02-02T22:01:24.129Z,26.67
2019-02-02T22:03:52.835Z,29.50
2019-02-02T22:06:22.900Z,27.87
2019-02-02T22:08:52.841Z,27.60
2019-02-02T22:11:23.039Z,27.62
2019-02-02T22:13:53.005Z,27.07
2019-02-02T22:16:23.436Z,25.40
2019-02-02T22:18:53.361Z,26.80
2019-02-02T22:21:23.344Z,27.43
2019-02-02T22:23:54.921Z,27.67
2019-02-02T22:26:24.993Z,27.97
2019-02-02T22:28:57.838Z,22.17
2019-02-02T22:31:26.885Z,29.57
2019-02-02T22:33:56.855Z,27.60
2019-02-02T22:36:27.813Z,25.80
2019-02-02T22:38:57.855Z,27.53
2019-02-02T22:41:27.798Z,24.20
2019-02-02T22:43:57.754Z,27.87
2019-02-02T22:46:27.797Z,26.10
2019-02-02T22:48:57.738Z,27.50
2019-02-02T22:51:27.834Z,28.20
2019-02-02T22:53:57.798Z,25.60
2019-02-02T22:56:27.887Z,26.12
2019-02-02T22:58:57.843Z,26.97
2019-02-02T23:01:34.195Z,27.10
2019-02-02T23:04:43.673Z,27.37
2019-02-02T23:07:53.047Z,27.37
2019-02-02T23:11:08.090Z,27.17
2019-02-02T23:14:24.228Z,27.00
2019-02-02T23:16:54.125Z,27.40
2019-02-02T23:19:24.158Z,29.47
2019-02-02T23:21:54.296Z,31.70
2019-02-02T23:24:24.215Z,27.30
2019-02-02T23:26:54.505Z,28.98
2019-02-02T23:29:24.467Z,31.62
2019-02-02T23:31:55.131Z,33.10
2019-02-02T23:34:25.244Z,32.07
2019-02-02T23:36:56.606Z,30.30
2019-02-02T23:39:26.699Z,28.13
2019-02-02T23:41:56.607Z,27.85
2019-02-02T23:44:26.653Z,29.87
2019-02-02T23:46:56.577Z,28.60
2019-02-02T23:49:26.573Z,28.30
2019-02-02T23:51:56.878Z,28.67
2019-02-02T23:54:27.069Z,26.93
2019-02-02T23:56:56.956Z,25.80
2019-02-02T23:59:26.943Z,27.87
